createdAt,value
2022-11-20T00:00:50.088Z,100147.47
2022-11-20T00:03:16.406Z,100139.44
2022-11-20T00:05:42.762Z,100141.28
2022-11-20T00:08:09.089Z,100143.13
2022-11-20T00:10:36.766Z,100135.94
2022-11-20T00:13:03.145Z,100144.94
2022-11-20T00:15:30.736Z,100143.97
2022-11-20T00:17:57.228Z,100139.44
2022-11-20T00:20:23.790Z,100139.44
2022-11-20T00:22:50.522Z,100137.66
2022-11-20T00:25:17.224Z,100134.09
2022-11-20T00:27:43.692Z,100133.16
2022-11-20T00:30:14.629Z,100137.66
2022-11-20T00:32:42.606Z,100133.25
2022-11-20T00:35:09.034Z,100129.75
2022-11-20T00:37:35.402Z,100130.72
2022-11-20T00:40:01.712Z,100127.81
2022-11-20T00:42:28.035Z,100126.09
2022-11-20T00:44:54.705Z,100124.28
2022-11-20T00:47:21.027Z,100114.53
2022-11-20T00:49:48.668Z,100119.78
2022-11-20T00:52:14.962Z,100114.53
2022-11-20T00:54:41.316Z,100115.38
2022-11-20T00:57:07.760Z,100110.03
2022-11-20T00:59:34.105Z,100113.69
2022-11-20T01:02:00.520Z,100110.03
2022-11-20T01:04:26.805Z,100111.88
2022-11-20T01:06:54.443Z,100111.75
2022-11-20T01:09:21.168Z,100103.84
2022-11-20T01:11:47.710Z,100096.66
2022-11-20T01:14:15.208Z,100098.50
2022-11-20T01:16:43.197Z,100087.78
2022-11-20T01:19:14.793Z,100088.63
2022-11-20T01:21:44.781Z,100083.28
2022-11-20T01:24:13.353Z,100077.94
2022-11-20T01:26:40.866Z,100072.59
2022-11-20T01:29:07.940Z,100070.91
2022-11-20T01:31:35.277Z,100061.03
2022-11-20T01:34:03.507Z,100060.09
2022-11-20T01:36:31.216Z,100054.84
2022-11-20T01:38:58.472Z,100056.53
2022-11-20T01:41:26.681Z,100049.38
2022-11-20T01:43:53.019Z,100049.50
2022-11-20T01:46:19.900Z,100041.47
2022-11-20T01:48:50.057Z,100044.03
2022-11-20T01:51:19.467Z,100044.16
2022-11-20T01:53:46.548Z,100047.81
2022-11-20T01:56:14.384Z,100049.50
2022-11-20T01:58:45.394Z,100047.66
2022-11-20T02:01:12.607Z,100041.38
2022-11-20T02:03:39.269Z,100046.72
2022-11-20T02:06:10.971Z,100044.03
2022-11-20T02:08:38.350Z,100041.47
2022-11-20T02:11:04.662Z,100040.50
2022-11-20T02:13:30.976Z,100034.28
2022-11-20T02:15:58.774Z,100028.94
2022-11-20T02:18:25.417Z,100016.56
2022-11-20T02:20:54.826Z,100017.41
2022-11-20T02:23:23.542Z,100012.91
2022-11-20T02:25:52.254Z,100012.19
2022-11-20T02:28:18.861Z,100009.28
2022-11-20T02:30:45.159Z,99995.00
2022-11-20T02:33:11.540Z,100003.03
2022-11-20T02:35:42.608Z,99995.00
2022-11-20T02:38:09.304Z,99990.53
2022-11-20T02:40:35.619Z,99984.31
2022-11-20T02:43:03.283Z,99977.28
2022-11-20T02:45:29.723Z,99978.13
2022-11-20T02:47:56.335Z,99965.59
2022-11-20T02:50:22.771Z,99959.28
2022-11-20T02:52:49.213Z,99950.41
2022-11-20T02:55:15.606Z,99952.22
2022-11-20T02:57:41.953Z,99954.91
2022-11-20T03:00:10.370Z,99943.34
2022-11-20T03:02:36.697Z,99942.50
2022-11-20T03:05:03.267Z,99937.06
2022-11-20T03:07:29.652Z,99935.31
2022-11-20T03:09:56.274Z,99930.81
2022-11-20T03:12:22.585Z,99929.03
2022-11-20T03:14:53.113Z,99932.66
2022-11-20T03:17:21.030Z,99921.13
2022-11-20T03:19:47.349Z,99916.59
2022-11-20T03:22:13.752Z,99910.41
2022-11-20T03:24:40.037Z,99906.91
2022-11-20T03:27:06.363Z,99904.06
2022-11-20T03:29:32.734Z,99908.59
2022-11-20T03:31:59.219Z,99905.06
2022-11-20T03:34:26.889Z,99904.94
2022-11-20T03:36:53.352Z,99898.72
2022-11-20T03:39:20.059Z,99896.06
2022-11-20T03:41:46.730Z,99890.69
2022-11-20T03:44:13.078Z,99887.91
2022-11-20T03:46:39.432Z,99888.03
2022-11-20T03:49:05.785Z,99878.31
2022-11-20T03:51:34.315Z,99888.19
2022-11-20T03:54:01.480Z,99885.34
2022-11-20T03:56:28.896Z,99880.00
2022-11-20T03:58:55.692Z,99872.13
2022-11-20T04:01:22.839Z,99864.09
2022-11-20T04:03:49.666Z,99851.56
2022-11-20T04:06:16.825Z,99858.75
2022-11-20T04:08:46.614Z,99854.25
2022-11-20T04:11:15.696Z,99842.72
2022-11-20T04:13:42.689Z,99851.56
2022-11-20T04:16:09.883Z,99840.88
2022-11-20T04:18:36.621Z,99828.34
2022-11-20T04:21:03.224Z,99837.22
2022-11-20T04:23:29.540Z,99829.34
2022-11-20T04:26:01.653Z,99832.84
2022-11-20T04:28:27.945Z,99837.22
2022-11-20T04:30:54.224Z,99832.00
2022-11-20T04:33:20.538Z,99830.19
2022-11-20T04:35:48.153Z,99830.19
2022-11-20T04:38:14.442Z,99824.81
2022-11-20T04:40:40.861Z,99824.81
2022-11-20T04:43:08.475Z,99820.47
2022-11-20T04:45:34.874Z,99823.84
2022-11-20T04:48:01.238Z,99816.81
2022-11-20T04:50:27.847Z,99812.44
2022-11-20T04:52:54.623Z,99812.44
2022-11-20T04:55:20.962Z,99807.94
2022-11-20T04:57:50.351Z,99809.63
2022-11-20T05:00:18.180Z,99809.63
2022-11-20T05:02:44.646Z,99815.13
2022-11-20T05:05:10.943Z,99809.78
2022-11-20T05:07:37.296Z,99810.63
2022-11-20T05:10:03.892Z,99800.91
2022-11-20T05:12:30.312Z,99798.94
2022-11-20T05:14:56.868Z,99796.25
2022-11-20T05:17:24.617Z,99799.78
2022-11-20T05:19:53.205Z,99792.72
2022-11-20T05:22:19.660Z,99782.03
2022-11-20T05:24:46.005Z,99782.03
2022-11-20T05:27:12.313Z,99770.50
2022-11-20T05:29:38.669Z,99772.31
2022-11-20T05:32:05.248Z,99787.38
2022-11-20T05:34:32.896Z,99782.88
2022-11-20T05:36:59.260Z,99774.00
2022-11-20T05:39:25.563Z,99777.53
2022-11-20T05:41:51.876Z,99777.53
2022-11-20T05:44:18.335Z,99771.34
2022-11-20T05:46:44.680Z,99776.69
2022-11-20T05:49:11.053Z,99769.50
2022-11-20T05:51:38.664Z,99775.84
2022-11-20T05:54:05.016Z,99772.19
2022-11-20T05:56:31.413Z,99773.16
2022-11-20T05:58:57.719Z,99762.47
2022-11-20T06:01:25.085Z,99763.19
2022-11-20T06:03:52.184Z,99758.81
2022-11-20T06:06:19.069Z,99756.13
2022-11-20T06:08:46.998Z,99774.00
2022-11-20T06:11:13.951Z,99784.72
2022-11-20T06:13:42.262Z,99778.53
2022-11-20T06:16:09.756Z,99788.38
2022-11-20T06:18:36.173Z,99786.53
2022-11-20T06:21:04.065Z,99783.03
2022-11-20T06:23:31.140Z,99789.22
2022-11-20T06:26:01.447Z,99791.06
2022-11-20T06:28:27.867Z,99798.09
2022-11-20T06:30:54.297Z,99799.06
2022-11-20T06:33:20.678Z,99807.09
2022-11-20T06:35:46.953Z,99815.13
2022-11-20T06:38:13.274Z,99815.13
2022-11-20T06:40:40.665Z,99811.59
2022-11-20T06:43:08.317Z,99808.06
2022-11-20T06:45:34.768Z,99791.88
2022-11-20T06:48:01.170Z,99787.53
2022-11-20T06:50:27.439Z,99774.16
2022-11-20T06:52:53.842Z,99775.97
2022-11-20T06:55:20.156Z,99779.63
2022-11-20T06:57:47.998Z,99769.78
2022-11-20T07:00:17.431Z,99774.16
2022-11-20T07:02:43.784Z,99772.31
2022-11-20T07:05:10.120Z,99773.28
2022-11-20T07:07:36.492Z,99766.13
2022-11-20T07:10:02.907Z,99768.81
2022-11-20T07:12:29.232Z,99765.16
2022-11-20T07:14:55.594Z,99767.09
2022-11-20T07:17:23.220Z,99759.91
2022-11-20T07:19:49.818Z,99762.59
2022-11-20T07:22:16.106Z,99761.75
2022-11-20T07:24:46.009Z,99759.91
2022-11-20T07:27:12.794Z,99773.03
2022-11-20T07:29:39.112Z,99775.69
2022-11-20T07:32:05.470Z,99767.09
2022-11-20T07:34:33.131Z,99762.59
2022-11-20T07:36:59.476Z,99766.25
2022-11-20T07:39:25.861Z,99775.13
2022-11-20T07:41:52.194Z,99779.63
2022-11-20T07:44:18.852Z,99772.44
2022-11-20T07:46:45.169Z,99777.78
2022-11-20T07:49:11.525Z,99771.59
2022-11-20T07:51:39.340Z,99769.78
2022-11-20T07:54:05.810Z,99759.06
2022-11-20T07:56:32.247Z,99763.59
2022-11-20T07:58:58.568Z,99772.44
2022-11-20T08:01:24.959Z,99777.78
2022-11-20T08:03:51.340Z,99781.31
2022-11-20T08:06:17.718Z,99778.63
2022-11-20T08:08:45.267Z,99788.50
2022-11-20T08:11:11.604Z,99783.13
2022-11-20T08:13:37.952Z,99775.97
2022-11-20T08:16:04.571Z,99782.31
2022-11-20T08:18:32.490Z,99783.97
2022-11-20T08:20:59.214Z,99783.97
2022-11-20T08:23:25.759Z,99795.66
2022-11-20T08:25:53.347Z,99800.03
2022-11-20T08:28:22.308Z,99806.25
2022-11-20T08:30:49.359Z,99807.09
2022-11-20T08:33:15.675Z,99797.34
2022-11-20T08:35:42.009Z,99800.03
2022-11-20T08:38:09.495Z,99807.09
2022-11-20T08:40:35.815Z,99816.94
2022-11-20T08:43:03.396Z,99813.28
2022-11-20T08:45:34.277Z,99815.13
2022-11-20T08:48:01.962Z,99810.63
2022-11-20T08:50:28.293Z,99821.31
2022-11-20T08:52:54.634Z,99817.78
2022-11-20T08:55:21.053Z,99827.66
2022-11-20T08:57:50.769Z,99829.44
2022-11-20T09:00:19.059Z,99824.25
2022-11-20T09:02:45.381Z,99823.16
2022-11-20T09:05:11.729Z,99834.69
2022-11-20T09:07:38.329Z,99844.53
2022-11-20T09:12:51.458Z,99858.88
2022-11-20T09:15:19.089Z,99871.28
2022-11-20T09:17:51.294Z,99878.31
2022-11-20T09:20:17.681Z,99886.34
2022-11-20T09:22:43.956Z,99892.69
2022-11-20T09:25:10.248Z,99903.38
2022-11-20T09:27:36.694Z,99907.88
2022-11-20T09:30:03.316Z,99905.22
2022-11-20T09:32:31.105Z,99917.44
2022-11-20T09:34:57.449Z,99926.22
2022-11-20T09:37:23.921Z,99930.72
2022-11-20T09:39:50.252Z,99930.81
2022-11-20T09:42:24.553Z,99930.13
2022-11-20T09:44:59.477Z,99941.66
2022-11-20T09:47:33.307Z,99935.22
2022-11-20T09:50:07.964Z,99950.53
2022-11-20T09:52:40.010Z,99931.97
2022-11-20T09:55:09.701Z,99942.09
2022-11-20T09:57:37.449Z,99938.84
2022-11-20T10:00:05.534Z,99940.41
2022-11-20T10:02:38.385Z,99940.81
2022-11-20T10:05:10.042Z,99950.53
2022-11-20T10:07:40.044Z,99936.31
2022-11-20T10:10:06.530Z,99936.06
2022-11-20T10:12:41.136Z,99948.19
2022-11-20T10:15:13.864Z,99958.56
2022-11-20T10:17:55.053Z,99960.25
2022-11-20T10:20:28.522Z,99966.19
2022-11-20T10:23:02.509Z,99958.56
2022-11-20T10:25:31.937Z,99958.69
2022-11-20T10:28:16.329Z,99950.78
2022-11-20T10:30:43.951Z,99947.59
2022-11-20T10:33:16.485Z,99940.56
2022-11-20T10:35:45.492Z,99944.94
2022-11-20T10:38:15.714Z,99936.16
2022-11-20T10:40:43.967Z,99945.19
2022-11-20T10:43:13.172Z,99940.69
2022-11-20T10:45:48.115Z,99946.03
2022-11-20T10:48:16.476Z,99949.19
2022-11-20T10:50:50.807Z,99960.84
2022-11-20T10:53:23.791Z,99956.63
2022-11-20T10:55:54.847Z,99961.22
2022-11-20T10:58:25.158Z,99956.63
2022-11-20T11:00:51.531Z,99964.38
2022-11-20T11:03:23.479Z,99974.78
2022-11-20T11:05:52.725Z,99977.63
2022-11-20T11:08:20.175Z,99989.31
2022-11-20T11:10:49.308Z,99991.84
2022-11-20T11:13:20.654Z,99985.38
2022-11-20T11:15:47.123Z,99976.38
2022-11-20T11:18:23.726Z,99970.44
2022-11-20T11:20:52.414Z,99970.44
2022-11-20T11:23:27.399Z,99964.50
2022-11-20T11:25:57.567Z,99956.88
2022-11-20T11:28:25.238Z,99955.16
2022-11-20T11:30:51.721Z,99957.00
2022-11-20T11:33:20.052Z,99940.81
2022-11-20T11:35:51.086Z,99955.16
2022-11-20T11:38:22.026Z,99956.13
2022-11-20T11:40:48.390Z,99964.75
2022-11-20T11:43:19.116Z,99950.28
2022-11-20T11:45:52.479Z,99937.75
2022-11-20T11:48:18.948Z,99938.00
2022-11-20T11:50:49.206Z,99929.28
2022-11-20T11:53:17.542Z,99926.72
2022-11-20T11:55:47.371Z,99924.63
2022-11-20T11:58:18.522Z,99921.97
2022-11-20T12:00:49.168Z,99931.81
2022-11-20T12:03:19.625Z,99934.63
2022-11-20T12:05:47.935Z,99938.00
2022-11-20T12:08:19.462Z,99935.22
2022-11-20T12:10:50.903Z,99947.75
2022-11-20T12:13:26.911Z,99956.72
2022-11-20T12:15:53.991Z,99956.47
2022-11-20T12:18:21.033Z,99952.22
2022-11-20T12:20:54.654Z,99956.63
2022-11-20T12:23:27.289Z,99942.09
2022-11-20T12:25:57.765Z,99956.06
2022-11-20T12:28:31.074Z,99961.41
2022-11-20T12:31:06.984Z,99965.81
2022-11-20T12:33:43.889Z,99970.56
2022-11-20T12:36:18.847Z,99976.28
2022-11-20T12:38:56.893Z,99978.00
2022-11-20T12:41:29.574Z,99966.91
2022-11-20T12:44:03.027Z,99970.56
2022-11-20T12:46:34.343Z,99967.63
2022-11-20T12:49:10.558Z,99968.75
2022-11-20T12:51:50.106Z,99969.59
2022-11-20T12:54:26.835Z,99960.00
2022-11-20T12:57:03.461Z,99972.41
2022-11-20T12:59:34.902Z,99964.22
2022-11-20T13:02:06.268Z,99960.84
2022-11-20T13:04:40.156Z,99955.78
2022-11-20T13:07:07.610Z,99958.31
2022-11-20T13:09:35.831Z,99961.72
2022-11-20T13:12:06.406Z,99963.41
2022-11-20T13:14:36.334Z,99968.16
2022-11-20T13:17:06.477Z,99960.84
2022-11-20T13:19:33.094Z,99966.19
2022-11-20T13:21:59.408Z,99961.97
2022-11-20T13:24:26.977Z,99964.50
2022-11-20T13:27:02.152Z,99961.72
2022-11-20T13:29:30.005Z,99950.28
2022-11-20T13:32:07.724Z,99961.22
2022-11-20T13:34:34.875Z,99953.94
2022-11-20T13:37:01.299Z,99960.84
2022-11-20T13:39:28.409Z,99947.75
2022-11-20T13:41:56.046Z,99954.91
2022-11-20T13:44:26.109Z,99941.41
2022-11-20T13:46:53.987Z,99951.84
2022-11-20T13:49:24.337Z,99967.31
2022-11-20T13:51:51.572Z,99973.63
2022-11-20T13:54:37.609Z,99963.66
2022-11-20T13:57:08.581Z,99971.41
2022-11-20T13:59:41.075Z,99977.75
2022-11-20T14:02:12.417Z,99978.84
2022-11-20T14:04:43.254Z,99984.78
2022-11-20T14:07:10.173Z,99983.38
2022-11-20T14:09:36.557Z,99992.22
2022-11-20T14:12:03.932Z,100004.38
2022-11-20T14:14:30.892Z,99983.81
2022-11-20T14:17:05.881Z,99987.59
2022-11-20T14:19:33.904Z,99988.47
2022-11-20T14:22:08.924Z,99989.41
2022-11-20T14:24:35.252Z,99988.97
2022-11-20T14:27:01.623Z,99987.25
2022-11-20T14:29:29.555Z,99981.53
2022-11-20T14:31:57.363Z,99988.13
2022-11-20T14:34:25.355Z,99982.03
2022-11-20T14:36:56.690Z,99983.97
2022-11-20T14:39:23.759Z,99991.16
2022-11-20T14:41:51.630Z,99989.47
2022-11-20T14:44:18.198Z,99996.41
2022-11-20T14:46:44.717Z,99989.34
2022-11-20T14:49:11.210Z,99997.94
2022-11-20T14:51:38.531Z,99997.34
2022-11-20T14:54:14.973Z,99996.50
2022-11-20T14:56:41.756Z,99992.00
2022-11-20T14:59:08.552Z,100000.03
2022-11-20T15:01:35.453Z,99991.75
2022-11-20T15:04:03.049Z,99987.53
2022-11-20T15:06:29.766Z,99996.00
2022-11-20T15:08:56.290Z,99985.06
2022-11-20T15:11:28.454Z,99983.38
2022-11-20T15:13:54.837Z,99989.81
2022-11-20T15:16:22.157Z,99989.66
2022-11-20T15:18:48.584Z,99997.09
2022-11-20T15:21:15.747Z,99999.06
2022-11-20T15:23:42.448Z,99989.47
2022-11-20T15:26:09.776Z,99999.34
2022-11-20T15:28:39.722Z,99992.16
2022-11-20T15:31:06.609Z,99988.38
2022-11-20T15:33:33.770Z,99984.84
2022-11-20T15:36:00.373Z,99985.13
2022-11-20T15:38:26.716Z,99982.44
2022-11-20T15:40:53.060Z,99985.13
2022-11-20T15:43:19.487Z,99976.25
2022-11-20T15:45:48.598Z,99972.59
2022-11-20T15:48:16.921Z,99976.38
2022-11-20T15:50:47.696Z,99981.59
2022-11-20T15:53:13.995Z,99989.47
2022-11-20T15:55:40.500Z,99994.81
2022-11-20T15:58:06.855Z,99997.50
2022-11-20T16:00:33.130Z,99987.78
2022-11-20T16:03:00.735Z,99988.63
2022-11-20T16:05:28.584Z,99985.97
2022-11-20T16:07:54.976Z,99987.78
2022-11-20T16:10:21.373Z,99986.81
2022-11-20T16:12:47.682Z,99984.97
2022-11-20T16:15:14.148Z,99991.16
2022-11-20T16:17:40.507Z,99988.50
2022-11-20T16:20:12.780Z,99991.16
2022-11-20T16:22:39.174Z,99999.19
2022-11-20T16:25:05.914Z,100000.19
2022-11-20T16:27:32.219Z,99990.31
2022-11-20T16:29:58.601Z,99982.44
2022-11-20T16:32:24.921Z,99985.81
2022-11-20T16:34:51.239Z,99984.84
2022-11-20T16:37:18.828Z,99985.81
2022-11-20T16:39:45.168Z,99978.78
2022-11-20T16:42:11.603Z,99988.63
2022-11-20T16:44:37.974Z,100002.00
2022-11-20T16:47:04.481Z,100001.16
2022-11-20T16:49:31.137Z,100005.53
2022-11-20T16:51:57.580Z,100004.53
2022-11-20T16:54:25.451Z,100013.56
2022-11-20T16:56:52.063Z,100014.13
2022-11-20T16:59:18.524Z,100016.41
2022-11-20T17:01:44.937Z,100018.97
2022-11-20T17:04:11.325Z,100030.66
2022-11-20T17:06:38.540Z,100017.41
2022-11-20T17:09:05.113Z,100023.75
2022-11-20T17:11:32.847Z,100025.81
2022-11-20T17:13:59.240Z,100026.41
2022-11-20T17:16:25.837Z,100035.53
2022-11-20T17:18:58.166Z,100031.28
2022-11-20T17:21:27.514Z,100023.00
2022-11-20T17:23:53.922Z,100027.84
2022-11-20T17:26:21.286Z,100023.75
2022-11-20T17:28:53.024Z,100018.38
2022-11-20T17:31:19.331Z,100023.25
2022-11-20T17:33:46.319Z,100028.34
2022-11-20T17:36:13.956Z,100033.13
2022-11-20T17:38:40.420Z,100024.25
2022-11-20T17:41:07.242Z,100033.25
2022-11-20T17:43:35.874Z,100034.94
2022-11-20T17:46:05.521Z,100032.13
2022-11-20T17:48:31.884Z,100031.53
2022-11-20T17:50:59.910Z,100020.72
2022-11-20T17:53:26.237Z,100032.53
2022-11-20T17:55:55.999Z,100034.94
2022-11-20T17:58:22.538Z,100030.69
2022-11-20T18:00:48.887Z,100030.84
2022-11-20T18:03:16.573Z,100031.69
2022-11-20T18:05:42.903Z,100033.50
2022-11-20T18:08:09.211Z,100034.50
2022-11-20T18:10:35.567Z,100039.84
2022-11-20T18:13:02.038Z,100037.16
2022-11-20T18:15:28.396Z,100044.31
2022-11-20T18:17:54.721Z,100042.50
2022-11-20T18:20:28.937Z,100047.88
2022-11-20T18:22:57.009Z,100038.97
2022-11-20T18:25:23.298Z,100045.31
2022-11-20T18:27:49.741Z,100043.47
2022-11-20T18:30:16.152Z,100053.22
2022-11-20T18:32:42.432Z,100045.31
2022-11-20T18:35:09.046Z,100044.31
2022-11-20T18:37:36.715Z,100045.19
2022-11-20T18:40:03.201Z,100049.66
2022-11-20T18:42:29.569Z,100047.00
2022-11-20T18:44:55.940Z,100041.63
2022-11-20T18:47:23.441Z,100046.16
2022-11-20T18:49:51.135Z,100050.53
2022-11-20T18:52:18.589Z,100049.81
2022-11-20T18:54:46.353Z,100047.97
2022-11-20T18:57:12.684Z,100054.16
2022-11-20T18:59:39.137Z,100060.34
2022-11-20T19:02:05.921Z,100059.50
2022-11-20T19:04:32.999Z,100055.16
2022-11-20T19:06:59.457Z,100060.50
2022-11-20T19:09:25.934Z,100061.47
2022-11-20T19:11:53.654Z,100070.34
2022-11-20T19:14:20.129Z,100070.22
2022-11-20T19:16:49.580Z,100069.38
2022-11-20T19:19:15.918Z,100064.88
2022-11-20T19:21:42.286Z,100066.69
2022-11-20T19:24:09.184Z,100063.19
2022-11-20T19:26:36.296Z,100069.38
2022-11-20T19:29:04.413Z,100061.34
2022-11-20T19:31:31.109Z,100059.50
2022-11-20T19:33:58.682Z,100062.19
2022-11-20T19:36:25.912Z,100058.66
2022-11-20T19:38:53.462Z,100064.03
2022-11-20T19:41:20.716Z,100053.31
2022-11-20T19:43:47.358Z,100068.53
2022-11-20T19:46:15.052Z,100072.03
2022-11-20T19:48:41.392Z,100063.31
2022-11-20T19:51:08.628Z,100058.81
2022-11-20T19:53:35.028Z,100061.34
2022-11-20T19:56:01.589Z,100063.19
2022-11-20T19:58:28.468Z,100070.22
2022-11-20T20:00:54.865Z,100064.03
2022-11-20T20:03:22.552Z,100063.19
2022-11-20T20:05:49.047Z,100056.13
2022-11-20T20:08:17.067Z,100060.50
2022-11-20T20:10:43.520Z,100063.19
2022-11-20T20:13:09.875Z,100055.16
2022-11-20T20:15:39.483Z,100054.16
2022-11-20T20:18:05.793Z,100054.16
2022-11-20T20:20:33.399Z,100062.19
2022-11-20T20:22:59.686Z,100056.97
2022-11-20T20:25:26.038Z,100057.69
2022-11-20T20:27:52.754Z,100064.88
2022-11-20T20:30:19.287Z,100068.38
2022-11-20T20:32:45.609Z,100067.53
2022-11-20T20:35:11.902Z,100073.72
2022-11-20T20:37:39.573Z,100062.19
2022-11-20T20:40:09.744Z,100069.25
2022-11-20T20:42:38.663Z,100070.22
2022-11-20T20:45:05.258Z,100072.03
2022-11-20T20:47:32.877Z,100066.69
2022-11-20T20:49:59.250Z,100061.34
2022-11-20T20:52:25.626Z,100059.50
2022-11-20T20:54:53.348Z,100061.34
2022-11-20T20:57:19.925Z,100064.03
2022-11-20T20:59:46.294Z,100068.53
2022-11-20T21:02:12.776Z,100068.53
2022-11-20T21:04:39.224Z,100070.22
2022-11-20T21:07:05.567Z,100064.03
2022-11-20T21:09:31.906Z,100058.81
2022-11-20T21:11:59.518Z,100048.97
2022-11-20T21:14:26.284Z,100055.16
2022-11-20T21:16:52.783Z,100053.47
2022-11-20T21:19:19.467Z,100043.63
2022-11-20T21:21:45.823Z,100050.78
2022-11-20T21:24:12.137Z,100053.31
2022-11-20T21:26:38.448Z,100056.13
2022-11-20T21:29:06.100Z,100052.47
2022-11-20T21:31:32.485Z,100047.28
2022-11-20T21:33:59.077Z,100049.94
2022-11-20T21:36:26.799Z,100056.13
2022-11-20T21:38:53.658Z,100056.13
2022-11-20T21:41:20.040Z,100049.06
2022-11-20T21:43:58.773Z,100047.28
2022-11-20T21:46:37.926Z,100047.28
2022-11-20T21:49:04.405Z,100044.59
2022-11-20T21:51:30.998Z,100043.72
2022-11-20T21:53:57.353Z,100055.28
2022-11-20T21:56:24.829Z,100038.38
2022-11-20T21:58:51.519Z,100043.72
2022-11-20T22:01:18.494Z,100047.28
2022-11-20T22:03:48.643Z,100038.38
2022-11-20T22:06:15.206Z,100033.03
2022-11-20T22:08:41.582Z,100025.00
2022-11-20T22:11:08.960Z,100026.84
2022-11-20T22:13:35.601Z,100016.97
2022-11-20T22:16:01.910Z,100010.78
2022-11-20T22:18:28.422Z,100016.13
2022-11-20T22:20:56.087Z,100027.69
2022-11-20T22:23:22.396Z,100030.34
2022-11-20T22:25:48.716Z,100018.81
2022-11-20T22:28:14.993Z,100026.84
2022-11-20T22:30:41.279Z,100023.31
2022-11-20T22:33:13.059Z,100017.13
2022-11-20T22:35:39.948Z,100015.28
2022-11-20T22:38:07.763Z,100021.47
2022-11-20T22:40:34.109Z,100008.97
2022-11-20T22:43:00.421Z,100003.63
2022-11-20T22:45:26.762Z,100008.97
2022-11-20T22:47:53.061Z,100000.09
2022-11-20T22:50:19.588Z,99996.56
2022-11-20T22:52:45.924Z,99998.41
2022-11-20T22:55:16.220Z,99999.13
2022-11-20T22:57:42.918Z,99993.91
2022-11-20T23:00:09.670Z,99993.06
2022-11-20T23:02:35.973Z,99980.53
2022-11-20T23:05:02.302Z,99980.53
2022-11-20T23:07:28.716Z,99970.69
2022-11-20T23:09:55.198Z,99973.34
2022-11-20T23:12:22.824Z,99961.81
2022-11-20T23:14:49.106Z,99963.66
2022-11-20T23:17:15.426Z,99967.16
2022-11-20T23:19:41.736Z,99964.50
2022-11-20T23:22:08.160Z,99955.63
2022-11-20T23:24:34.523Z,99962.66
2022-11-20T23:27:00.874Z,99957.44
2022-11-20T23:29:28.490Z,99960.97
2022-11-20T23:31:54.852Z,99948.44
2022-11-20T23:34:21.456Z,99948.59
2022-11-20T23:36:47.818Z,99939.56
2022-11-20T23:39:14.099Z,99928.03
2022-11-20T23:41:40.547Z,99928.03
2022-11-20T23:44:07.018Z,99918.34
2022-11-20T23:46:34.764Z,99918.34
2022-11-20T23:49:01.068Z,99913.00
2022-11-20T23:51:27.415Z,99910.31
2022-11-20T23:53:53.893Z,99900.47
2022-11-20T23:56:20.254Z,99901.31
2022-11-20T23:58:46.619Z,99896.06
